sensor_id;sensor_type;location;lat;lon;timestamp;P1;durP1;ratioP1;P2;durP2;ratioP2
74945;SDS011;63509;45.250;38.102;2024-01-06T00:00:00;2.22;;;1.15;;
74945;SDS011;63509;45.250;38.102;2024-01-06T00:02:26;9.25;;;2.30;;
74945;SDS011;63509;45.250;38.102;2024-01-06T00:04:52;3.15;;;1.40;;
74945;SDS011;63509;45.250;38.102;2024-01-06T00:07:18;2.90;;;1.13;;
74945;SDS011;63509;45.250;38.102;2024-01-06T00:09:44;3.83;;;1.27;;
74945;SDS011;63509;45.250;38.102;2024-01-06T00:12:10;3.33;;;1.80;;
74945;SDS011;63509;45.250;38.102;2024-01-06T00:14:36;3.58;;;1.45;;
74945;SDS011;63509;45.250;38.102;2024-01-06T00:17:03;3.55;;;1.67;;
74945;SDS011;63509;45.250;38.102;2024-01-06T00:19:29;5.55;;;1.70;;
74945;SDS011;63509;45.250;38.102;2024-01-06T00:21:55;2.95;;;1.77;;
74945;SDS011;63509;45.250;38.102;2024-01-06T00:24:21;4.28;;;2.08;;
74945;SDS011;63509;45.250;38.102;2024-01-06T00:26:47;4.18;;;1.30;;
74945;SDS011;63509;45.250;38.102;2024-01-06T00:29:13;3.15;;;1.52;;
74945;SDS011;63509;45.250;38.102;2024-01-06T00:31:39;5.22;;;1.90;;
74945;SDS011;63509;45.250;38.102;2024-01-06T00:34:05;3.03;;;1.90;;
74945;SDS011;63509;45.250;38.102;2024-01-06T00:36:31;3.53;;;1.48;;
74945;SDS011;63509;45.250;38.102;2024-01-06T00:38:58;5.65;;;1.98;;
74945;SDS011;63509;45.250;38.102;2024-01-06T00:41:24;4.47;;;1.98;;
74945;SDS011;63509;45.250;38.102;2024-01-06T00:43:50;3.08;;;1.50;;
74945;SDS011;63509;45.250;38.102;2024-01-06T00:46:16;3.40;;;1.80;;
74945;SDS011;63509;45.250;38.102;2024-01-06T00:48:42;3.90;;;1.67;;
74945;SDS011;63509;45.250;38.102;2024-01-06T00:51:08;3.97;;;1.80;;
74945;SDS011;63509;45.250;38.102;2024-01-06T00:53:34;4.55;;;1.92;;
74945;SDS011;63509;45.250;38.102;2024-01-06T00:56:00;3.42;;;1.63;;
74945;SDS011;63509;45.250;38.102;2024-01-06T00:58:27;5.78;;;1.50;;
74945;SDS011;63509;45.250;38.102;2024-01-06T01:00:53;4.97;;;2.22;;
74945;SDS011;63509;45.250;38.102;2024-01-06T01:03:19;4.22;;;1.95;;
74945;SDS011;63509;45.250;38.102;2024-01-06T01:05:45;3.65;;;2.08;;
74945;SDS011;63509;45.250;38.102;2024-01-06T01:08:11;6.35;;;1.73;;
74945;SDS011;63509;45.250;38.102;2024-01-06T01:10:37;4.68;;;1.92;;
74945;SDS011;63509;45.250;38.102;2024-01-06T01:13:03;5.53;;;2.00;;
74945;SDS011;63509;45.250;38.102;2024-01-06T01:15:29;3.53;;;1.50;;
74945;SDS011;63509;45.250;38.102;2024-01-06T01:17:56;5.95;;;1.85;;
74945;SDS011;63509;45.250;38.102;2024-01-06T01:20:22;4.80;;;1.85;;
74945;SDS011;63509;45.250;38.102;2024-01-06T01:22:48;4.93;;;2.40;;
74945;SDS011;63509;45.250;38.102;2024-01-06T01:25:14;5.90;;;1.90;;
74945;SDS011;63509;45.250;38.102;2024-01-06T01:27:40;5.00;;;1.83;;
74945;SDS011;63509;45.250;38.102;2024-01-06T01:30:06;3.17;;;1.25;;
74945;SDS011;63509;45.250;38.102;2024-01-06T01:32:33;5.68;;;1.83;;
74945;SDS011;63509;45.250;38.102;2024-01-06T01:34:59;5.18;;;1.52;;
74945;SDS011;63509;45.250;38.102;2024-01-06T01:37:25;6.32;;;2.53;;
74945;SDS011;63509;45.250;38.102;2024-01-06T01:39:51;8.43;;;2.28;;
74945;SDS011;63509;45.250;38.102;2024-01-06T01:42:17;4.15;;;1.17;;
74945;SDS011;63509;45.250;38.102;2024-01-06T01:44:43;5.82;;;2.70;;
74945;SDS011;63509;45.250;38.102;2024-01-06T01:47:10;3.47;;;1.50;;
74945;SDS011;63509;45.250;38.102;2024-01-06T01:49:37;10.18;;;1.95;;
74945;SDS011;63509;45.250;38.102;2024-01-06T01:52:03;4.75;;;1.80;;
74945;SDS011;63509;45.250;38.102;2024-01-06T01:54:29;5.15;;;1.90;;
74945;SDS011;63509;45.250;38.102;2024-01-06T01:56:55;4.32;;;1.83;;
74945;SDS011;63509;45.250;38.102;2024-01-06T01:59:22;4.85;;;2.30;;
74945;SDS011;63509;45.250;38.102;2024-01-06T02:01:48;4.13;;;2.13;;
74945;SDS011;63509;45.250;38.102;2024-01-06T02:04:15;8.25;;;2.03;;
74945;SDS011;63509;45.250;38.102;2024-01-06T02:06:41;4.55;;;1.65;;
74945;SDS011;63509;45.250;38.102;2024-01-06T02:09:07;6.95;;;1.70;;
74945;SDS011;63509;45.250;38.102;2024-01-06T02:11:33;7.70;;;2.00;;
74945;SDS011;63509;45.250;38.102;2024-01-06T02:13:59;4.30;;;1.50;;
74945;SDS011;63509;45.250;38.102;2024-01-06T02:16:26;2.88;;;1.05;;
74945;SDS011;63509;45.250;38.102;2024-01-06T02:18:52;5.07;;;2.25;;
74945;SDS011;63509;45.250;38.102;2024-01-06T02:21:18;1.98;;;1.10;;
74945;SDS011;63509;45.250;38.102;2024-01-06T02:23:48;3.75;;;1.73;;
74945;SDS011;63509;45.250;38.102;2024-01-06T02:26:14;4.32;;;1.90;;
74945;SDS011;63509;45.250;38.102;2024-01-06T02:28:41;5.18;;;2.45;;
74945;SDS011;63509;45.250;38.102;2024-01-06T02:33:36;4.43;;;1.60;;
74945;SDS011;63509;45.250;38.102;2024-01-06T02:36:03;8.80;;;1.65;;
74945;SDS011;63509;45.250;38.102;2024-01-06T02:38:29;3.33;;;1.40;;
74945;SDS011;63509;45.250;38.102;2024-01-06T02:40:55;3.10;;;1.42;;
74945;SDS011;63509;45.250;38.102;2024-01-06T02:43:21;2.97;;;1.45;;
74945;SDS011;63509;45.250;38.102;2024-01-06T02:45:48;3.83;;;1.67;;
74945;SDS011;63509;45.250;38.102;2024-01-06T02:48:15;3.10;;;1.15;;
74945;SDS011;63509;45.250;38.102;2024-01-06T02:50:41;4.60;;;1.65;;
74945;SDS011;63509;45.250;38.102;2024-01-06T02:53:07;4.70;;;1.85;;
74945;SDS011;63509;45.250;38.102;2024-01-06T02:55:35;4.22;;;1.83;;
74945;SDS011;63509;45.250;38.102;2024-01-06T02:58:01;4.07;;;1.65;;
74945;SDS011;63509;45.250;38.102;2024-01-06T03:00:27;2.78;;;1.02;;
74945;SDS011;63509;45.250;38.102;2024-01-06T03:02:53;2.45;;;1.35;;
74945;SDS011;63509;45.250;38.102;2024-01-06T03:05:19;3.75;;;1.73;;
74945;SDS011;63509;45.250;38.102;2024-01-06T03:07:45;3.33;;;1.05;;
74945;SDS011;63509;45.250;38.102;2024-01-06T03:10:12;3.72;;;1.60;;
74945;SDS011;63509;45.250;38.102;2024-01-06T03:12:38;3.78;;;1.60;;
74945;SDS011;63509;45.250;38.102;2024-01-06T03:15:05;7.60;;;2.13;;
74945;SDS011;63509;45.250;38.102;2024-01-06T03:17:32;4.80;;;1.90;;
74945;SDS011;63509;45.250;38.102;2024-01-06T03:19:58;3.97;;;2.13;;
74945;SDS011;63509;45.250;38.102;2024-01-06T03:22:24;3.47;;;1.67;;
74945;SDS011;63509;45.250;38.102;2024-01-06T03:24:50;3.72;;;2.03;;
74945;SDS011;63509;45.250;38.102;2024-01-06T03:27:16;7.35;;;2.35;;
74945;SDS011;63509;45.250;38.102;2024-01-06T03:29:42;3.47;;;1.73;;
74945;SDS011;63509;45.250;38.102;2024-01-06T03:32:08;2.60;;;1.00;;
74945;SDS011;63509;45.250;38.102;2024-01-06T03:34:34;2.78;;;1.23;;
74945;SDS011;63509;45.250;38.102;2024-01-06T03:37:00;4.93;;;1.77;;
74945;SDS011;63509;45.250;38.102;2024-01-06T03:39:28;3.47;;;1.85;;
74945;SDS011;63509;45.250;38.102;2024-01-06T03:41:54;3.85;;;1.95;;
74945;SDS011;63509;45.250;38.102;2024-01-06T03:44:20;4.03;;;2.33;;
74945;SDS011;63509;45.250;38.102;2024-01-06T03:46:46;3.08;;;2.00;;
74945;SDS011;63509;45.250;38.102;2024-01-06T03:49:12;5.88;;;3.33;;
74945;SDS011;63509;45.250;38.102;2024-01-06T03:51:38;4.72;;;2.78;;
74945;SDS011;63509;45.250;38.102;2024-01-06T03:54:04;4.15;;;1.58;;
74945;SDS011;63509;45.250;38.102;2024-01-06T03:56:30;4.13;;;2.15;;
74945;SDS011;63509;45.250;38.102;2024-01-06T03:58:56;6.47;;;1.40;;
74945;SDS011;63509;45.250;38.102;2024-01-06T04:01:25;5.57;;;1.85;;
74945;SDS011;63509;45.250;38.102;2024-01-06T04:03:52;2.85;;;1.50;;
74945;SDS011;63509;45.250;38.102;2024-01-06T04:06:18;3.80;;;1.73;;
74945;SDS011;63509;45.250;38.102;2024-01-06T04:08:44;2.65;;;1.30;;
74945;SDS011;63509;45.250;38.102;2024-01-06T04:11:10;4.15;;;1.95;;
74945;SDS011;63509;45.250;38.102;2024-01-06T04:13:36;3.70;;;1.70;;
74945;SDS011;63509;45.250;38.102;2024-01-06T04:16:02;4.95;;;1.80;;
74945;SDS011;63509;45.250;38.102;2024-01-06T04:18:28;2.60;;;1.23;;
74945;SDS011;63509;45.250;38.102;2024-01-06T04:20:54;2.42;;;1.38;;
74945;SDS011;63509;45.250;38.102;2024-01-06T04:23:20;5.00;;;2.13;;
74945;SDS011;63509;45.250;38.102;2024-01-06T04:25:47;2.90;;;1.33;;
74945;SDS011;63509;45.250;38.102;2024-01-06T04:28:13;3.00;;;1.55;;
74945;SDS011;63509;45.250;38.102;2024-01-06T04:30:39;2.58;;;1.50;;
74945;SDS011;63509;45.250;38.102;2024-01-06T04:33:05;5.25;;;2.05;;
74945;SDS011;63509;45.250;38.102;2024-01-06T04:35:32;4.03;;;1.75;;
74945;SDS011;63509;45.250;38.102;2024-01-06T04:37:58;3.72;;;2.30;;
74945;SDS011;63509;45.250;38.102;2024-01-06T04:40:24;4.40;;;2.05;;
74945;SDS011;63509;45.250;38.102;2024-01-06T04:42:50;5.18;;;1.77;;
74945;SDS011;63509;45.250;38.102;2024-01-06T04:45:16;2.58;;;1.10;;
74945;SDS011;63509;45.250;38.102;2024-01-06T04:47:45;10.32;;;2.58;;
74945;SDS011;63509;45.250;38.102;2024-01-06T04:50:11;3.58;;;1.58;;
74945;SDS011;63509;45.250;38.102;2024-01-06T04:52:37;7.03;;;1.70;;
74945;SDS011;63509;45.250;38.102;2024-01-06T04:55:03;7.32;;;1.77;;
74945;SDS011;63509;45.250;38.102;2024-01-06T04:57:30;3.60;;;1.95;;
74945;SDS011;63509;45.250;38.102;2024-01-06T04:59:56;2.28;;;1.08;;
74945;SDS011;63509;45.250;38.102;2024-01-06T05:02:22;3.35;;;1.70;;
74945;SDS011;63509;45.250;38.102;2024-01-06T05:04:48;3.53;;;2.40;;
74945;SDS011;63509;45.250;38.102;2024-01-06T05:07:14;3.55;;;1.58;;
74945;SDS011;63509;45.250;38.102;2024-01-06T05:09:40;3.10;;;1.83;;
74945;SDS011;63509;45.250;38.102;2024-01-06T05:12:06;8.30;;;2.25;;
74945;SDS011;63509;45.250;38.102;2024-01-06T05:14:33;4.40;;;2.35;;
74945;SDS011;63509;45.250;38.102;2024-01-06T05:16:59;5.53;;;2.15;;
74945;SDS011;63509;45.250;38.102;2024-01-06T05:19:25;3.55;;;2.25;;
74945;SDS011;63509;45.250;38.102;2024-01-06T05:21:51;3.28;;;1.85;;
74945;SDS011;63509;45.250;38.102;2024-01-06T05:24:18;7.05;;;2.00;;
74945;SDS011;63509;45.250;38.102;2024-01-06T05:26:44;2.55;;;1.73;;
74945;SDS011;63509;45.250;38.102;2024-01-06T05:29:10;5.15;;;2.53;;
74945;SDS011;63509;45.250;38.102;2024-01-06T05:31:36;5.85;;;2.03;;
74945;SDS011;63509;45.250;38.102;2024-01-06T05:34:03;4.43;;;2.10;;
74945;SDS011;63509;45.250;38.102;2024-01-06T05:36:30;5.03;;;2.20;;
74945;SDS011;63509;45.250;38.102;2024-01-06T05:38:56;5.75;;;2.75;;
74945;SDS011;63509;45.250;38.102;2024-01-06T05:41:22;3.63;;;2.05;;
74945;SDS011;63509;45.250;38.102;2024-01-06T05:43:48;4.00;;;2.28;;
74945;SDS011;63509;45.250;38.102;2024-01-06T05:46:23;7.68;;;2.55;;
74945;SDS011;63509;45.250;38.102;2024-01-06T05:48:50;4.03;;;2.22;;
74945;SDS011;63509;45.250;38.102;2024-01-06T05:51:16;8.15;;;2.28;;
74945;SDS011;63509;45.250;38.102;2024-01-06T05:53:42;4.32;;;2.22;;
74945;SDS011;63509;45.250;38.102;2024-01-06T05:56:08;7.13;;;1.75;;
74945;SDS011;63509;45.250;38.102;2024-01-06T05:58:35;3.80;;;2.10;;
74945;SDS011;63509;45.250;38.102;2024-01-06T06:01:01;8.45;;;2.08;;
74945;SDS011;63509;45.250;38.102;2024-01-06T06:03:28;6.32;;;2.85;;
74945;SDS011;63509;45.250;38.102;2024-01-06T06:05:57;4.43;;;2.63;;
74945;SDS011;63509;45.250;38.102;2024-01-06T06:08:23;3.30;;;1.95;;
74945;SDS011;63509;45.250;38.102;2024-01-06T06:10:50;6.38;;;2.45;;
74945;SDS011;63509;45.250;38.102;2024-01-06T06:13:41;7.00;;;2.25;;
74945;SDS011;63509;45.250;38.102;2024-01-06T06:16:11;6.05;;;2.25;;
74945;SDS011;63509;45.250;38.102;2024-01-06T06:18:38;8.15;;;3.15;;
74945;SDS011;63509;45.250;38.102;2024-01-06T06:21:05;5.97;;;2.78;;
74945;SDS011;63509;45.250;38.102;2024-01-06T06:23:33;5.03;;;2.15;;
74945;SDS011;63509;45.250;38.102;2024-01-06T06:26:04;4.55;;;2.65;;
74945;SDS011;63509;45.250;38.102;2024-01-06T06:28:30;5.15;;;2.78;;
74945;SDS011;63509;45.250;38.102;2024-01-06T06:30:57;4.15;;;2.10;;
74945;SDS011;63509;45.250;38.102;2024-01-06T06:33:23;3.72;;;2.38;;
74945;SDS011;63509;45.250;38.102;2024-01-06T06:35:49;7.85;;;2.92;;
74945;SDS011;63509;45.250;38.102;2024-01-06T06:38:15;8.82;;;2.70;;
74945;SDS011;63509;45.250;38.102;2024-01-06T06:40:41;4.68;;;2.28;;
74945;SDS011;63509;45.250;38.102;2024-01-06T06:43:07;6.95;;;2.90;;
74945;SDS011;63509;45.250;38.102;2024-01-06T06:45:34;8.27;;;3.10;;
74945;SDS011;63509;45.250;38.102;2024-01-06T06:48:00;4.20;;;2.42;;
74945;SDS011;63509;45.250;38.102;2024-01-06T06:50:26;4.63;;;2.60;;
74945;SDS011;63509;45.250;38.102;2024-01-06T06:52:52;5.25;;;1.80;;
74945;SDS011;63509;45.250;38.102;2024-01-06T06:55:18;5.10;;;2.00;;
74945;SDS011;63509;45.250;38.102;2024-01-06T06:57:45;4.68;;;2.15;;
74945;SDS011;63509;45.250;38.102;2024-01-06T07:00:11;4.70;;;2.42;;
74945;SDS011;63509;45.250;38.102;2024-01-06T07:02:38;5.57;;;2.53;;
74945;SDS011;63509;45.250;38.102;2024-01-06T07:05:04;10.57;;;2.95;;
74945;SDS011;63509;45.250;38.102;2024-01-06T07:07:33;8.40;;;3.28;;
74945;SDS011;63509;45.250;38.102;2024-01-06T07:10:02;9.30;;;2.33;;
74945;SDS011;63509;45.250;38.102;2024-01-06T07:12:30;5.88;;;2.83;;
74945;SDS011;63509;45.250;38.102;2024-01-06T07:14:57;5.68;;;2.25;;
74945;SDS011;63509;45.250;38.102;2024-01-06T07:17:26;5.88;;;2.00;;
74945;SDS011;63509;45.250;38.102;2024-01-06T07:19:52;4.82;;;2.13;;
74945;SDS011;63509;45.250;38.102;2024-01-06T07:22:19;5.18;;;2.50;;
74945;SDS011;63509;45.250;38.102;2024-01-06T07:24:46;6.32;;;2.53;;
74945;SDS011;63509;45.250;38.102;2024-01-06T07:27:12;4.40;;;2.30;;
74945;SDS011;63509;45.250;38.102;2024-01-06T07:29:38;9.85;;;2.47;;
74945;SDS011;63509;45.250;38.102;2024-01-06T07:32:04;12.45;;;2.28;;
74945;SDS011;63509;45.250;38.102;2024-01-06T07:34:32;5.75;;;2.10;;
74945;SDS011;63509;45.250;38.102;2024-01-06T07:36:58;4.70;;;2.75;;
74945;SDS011;63509;45.250;38.102;2024-01-06T07:39:25;7.15;;;3.95;;
74945;SDS011;63509;45.250;38.102;2024-01-06T07:41:51;6.85;;;3.20;;
74945;SDS011;63509;45.250;38.102;2024-01-06T07:44:17;8.57;;;2.85;;
74945;SDS011;63509;45.250;38.102;2024-01-06T07:46:50;5.05;;;3.40;;
74945;SDS011;63509;45.250;38.102;2024-01-06T07:49:17;5.18;;;2.75;;
74945;SDS011;63509;45.250;38.102;2024-01-06T07:51:43;7.75;;;4.03;;
74945;SDS011;63509;45.250;38.102;2024-01-06T07:54:09;5.70;;;3.15;;
74945;SDS011;63509;45.250;38.102;2024-01-06T07:56:37;5.43;;;2.88;;
74945;SDS011;63509;45.250;38.102;2024-01-06T07:59:04;7.07;;;3.20;;
74945;SDS011;63509;45.250;38.102;2024-01-06T08:01:31;7.63;;;4.07;;
74945;SDS011;63509;45.250;38.102;2024-01-06T08:03:57;6.25;;;3.05;;
74945;SDS011;63509;45.250;38.102;2024-01-06T08:06:24;6.20;;;2.75;;
74945;SDS011;63509;45.250;38.102;2024-01-06T08:08:51;6.13;;;2.78;;
74945;SDS011;63509;45.250;38.102;2024-01-06T08:11:17;7.50;;;3.88;;
74945;SDS011;63509;45.250;38.102;2024-01-06T08:13:43;8.05;;;4.10;;
74945;SDS011;63509;45.250;38.102;2024-01-06T08:16:09;10.32;;;4.20;;
74945;SDS011;63509;45.250;38.102;2024-01-06T08:18:35;9.88;;;3.53;;
74945;SDS011;63509;45.250;38.102;2024-01-06T08:21:02;4.85;;;2.70;;
74945;SDS011;63509;45.250;38.102;2024-01-06T08:23:28;12.02;;;2.80;;
74945;SDS011;63509;45.250;38.102;2024-01-06T08:25:54;5.88;;;3.20;;
74945;SDS011;63509;45.250;38.102;2024-01-06T08:28:21;8.82;;;3.03;;
74945;SDS011;63509;45.250;38.102;2024-01-06T08:30:49;10.35;;;3.20;;
74945;SDS011;63509;45.250;38.102;2024-01-06T08:33:15;5.35;;;3.03;;
74945;SDS011;63509;45.250;38.102;2024-01-06T08:35:43;10.57;;;3.35;;
74945;SDS011;63509;45.250;38.102;2024-01-06T08:38:09;6.22;;;2.92;;
74945;SDS011;63509;45.250;38.102;2024-01-06T08:40:36;4.97;;;2.63;;
74945;SDS011;63509;45.250;38.102;2024-01-06T08:43:02;8.48;;;3.22;;
74945;SDS011;63509;45.250;38.102;2024-01-06T08:45:29;12.63;;;3.47;;
74945;SDS011;63509;45.250;38.102;2024-01-06T08:47:55;5.75;;;3.13;;
74945;SDS011;63509;45.250;38.102;2024-01-06T08:50:21;10.75;;;2.47;;
74945;SDS011;63509;45.250;38.102;2024-01-06T08:52:47;4.43;;;2.33;;
74945;SDS011;63509;45.250;38.102;2024-01-06T08:55:14;6.70;;;3.13;;
74945;SDS011;63509;45.250;38.102;2024-01-06T08:57:42;7.65;;;2.00;;
74945;SDS011;63509;45.250;38.102;2024-01-06T09:00:08;6.65;;;2.63;;
74945;SDS011;63509;45.250;38.102;2024-01-06T09:02:36;12.55;;;3.08;;
74945;SDS011;63509;45.250;38.102;2024-01-06T09:05:02;5.78;;;2.40;;
74945;SDS011;63509;45.250;38.102;2024-01-06T09:07:29;8.27;;;2.90;;
74945;SDS011;63509;45.250;38.102;2024-01-06T09:09:55;5.82;;;2.20;;
74945;SDS011;63509;45.250;38.102;2024-01-06T09:12:22;3.95;;;2.25;;
74945;SDS011;63509;45.250;38.102;2024-01-06T09:14:48;4.22;;;2.08;;
74945;SDS011;63509;45.250;38.102;2024-01-06T09:17:14;14.27;;;2.38;;
74945;SDS011;63509;45.250;38.102;2024-01-06T09:19:41;5.95;;;2.45;;
74945;SDS011;63509;45.250;38.102;2024-01-06T09:22:07;13.60;;;2.42;;
74945;SDS011;63509;45.250;38.102;2024-01-06T09:24:33;7.35;;;2.15;;
74945;SDS011;63509;45.250;38.102;2024-01-06T09:26:59;4.63;;;2.17;;
74945;SDS011;63509;45.250;38.102;2024-01-06T09:29:26;7.18;;;2.28;;
74945;SDS011;63509;45.250;38.102;2024-01-06T09:31:52;4.85;;;2.40;;
74945;SDS011;63509;45.250;38.102;2024-01-06T09:34:19;3.95;;;1.73;;
74945;SDS011;63509;45.250;38.102;2024-01-06T09:36:46;3.80;;;1.80;;
74945;SDS011;63509;45.250;38.102;2024-01-06T09:39:12;13.45;;;2.55;;
74945;SDS011;63509;45.250;38.102;2024-01-06T09:41:38;7.20;;;2.55;;
74945;SDS011;63509;45.250;38.102;2024-01-06T09:44:05;6.28;;;2.50;;
74945;SDS011;63509;45.250;38.102;2024-01-06T09:46:31;16.52;;;3.03;;
74945;SDS011;63509;45.250;38.102;2024-01-06T09:48:58;9.95;;;2.35;;
74945;SDS011;63509;45.250;38.102;2024-01-06T09:51:24;5.22;;;1.88;;
74945;SDS011;63509;45.250;38.102;2024-01-06T09:54:01;4.10;;;1.85;;
74945;SDS011;63509;45.250;38.102;2024-01-06T09:56:33;7.13;;;2.00;;
74945;SDS011;63509;45.250;38.102;2024-01-06T09:59:00;7.70;;;1.60;;
74945;SDS011;63509;45.250;38.102;2024-01-06T10:01:27;3.13;;;1.58;;
74945;SDS011;63509;45.250;38.102;2024-01-06T10:03:53;5.55;;;1.55;;
74945;SDS011;63509;45.250;38.102;2024-01-06T10:06:20;4.07;;;1.70;;
74945;SDS011;63509;45.250;38.102;2024-01-06T10:08:50;5.95;;;2.10;;
74945;SDS011;63509;45.250;38.102;2024-01-06T10:11:17;4.78;;;1.98;;
74945;SDS011;63509;45.250;38.102;2024-01-06T10:13:48;4.82;;;1.90;;
74945;SDS011;63509;45.250;38.102;2024-01-06T10:16:18;6.38;;;1.80;;
74945;SDS011;63509;45.250;38.102;2024-01-06T10:18:44;5.55;;;1.20;;
74945;SDS011;63509;45.250;38.102;2024-01-06T10:21:11;2.70;;;1.30;;
74945;SDS011;63509;45.250;38.102;2024-01-06T10:23:39;9.00;;;2.15;;
74945;SDS011;63509;45.250;38.102;2024-01-06T10:26:07;9.65;;;1.60;;
74945;SDS011;63509;45.250;38.102;2024-01-06T10:28:38;13.48;;;2.53;;
74945;SDS011;63509;45.250;38.102;2024-01-06T10:31:04;9.43;;;1.95;;
74945;SDS011;63509;45.250;38.102;2024-01-06T10:33:31;7.65;;;1.67;;
74945;SDS011;63509;45.250;38.102;2024-01-06T10:35:58;2.53;;;1.30;;
74945;SDS011;63509;45.250;38.102;2024-01-06T10:38:26;9.80;;;1.40;;
74945;SDS011;63509;45.250;38.102;2024-01-06T10:40:59;11.00;;;1.88;;
74945;SDS011;63509;45.250;38.102;2024-01-06T10:43:27;5.95;;;1.60;;
74945;SDS011;63509;45.250;38.102;2024-01-06T10:46:00;4.07;;;1.35;;
74945;SDS011;63509;45.250;38.102;2024-01-06T10:48:34;13.75;;;1.92;;
74945;SDS011;63509;45.250;38.102;2024-01-06T10:51:00;9.85;;;1.70;;
74945;SDS011;63509;45.250;38.102;2024-01-06T10:53:33;5.95;;;1.38;;
74945;SDS011;63509;45.250;38.102;2024-01-06T10:56:05;2.28;;;1.10;;
74945;SDS011;63509;45.250;38.102;2024-01-06T11:01:08;6.43;;;1.58;;
74945;SDS011;63509;45.250;38.102;2024-01-06T11:03:38;6.13;;;1.45;;
74945;SDS011;63509;45.250;38.102;2024-01-06T11:06:06;11.77;;;1.58;;
74945;SDS011;63509;45.250;38.102;2024-01-06T11:08:40;15.05;;;1.98;;
74945;SDS011;63509;45.250;38.102;2024-01-06T11:11:27;6.93;;;1.27;;
74945;SDS011;63509;45.250;38.102;2024-01-06T11:17:03;4.10;;;1.30;;
74945;SDS011;63509;45.250;38.102;2024-01-06T11:22:23;17.27;;;1.50;;
74945;SDS011;63509;45.250;38.102;2024-01-06T11:24:55;10.13;;;1.30;;
74945;SDS011;63509;45.250;38.102;2024-01-06T11:27:23;7.65;;;2.28;;
74945;SDS011;63509;45.250;38.102;2024-01-06T11:30:00;9.60;;;1.63;;
74945;SDS011;63509;45.250;38.102;2024-01-06T11:32:34;14.75;;;2.42;;
74945;SDS011;63509;45.250;38.102;2024-01-06T11:35:07;7.05;;;1.95;;
74945;SDS011;63509;45.250;38.102;2024-01-06T11:37:36;9.13;;;1.88;;
74945;SDS011;63509;45.250;38.102;2024-01-06T11:40:09;14.57;;;1.42;;
74945;SDS011;63509;45.250;38.102;2024-01-06T11:45:41;14.13;;;4.13;;
74945;SDS011;63509;45.250;38.102;2024-01-06T11:48:08;25.65;;;4.50;;
74945;SDS011;63509;45.250;38.102;2024-01-06T11:50:38;31.50;;;7.18;;
74945;SDS011;63509;45.250;38.102;2024-01-06T11:55:33;7.55;;;3.17;;
74945;SDS011;63509;45.250;38.102;2024-01-06T11:58:00;9.40;;;2.60;;
74945;SDS011;63509;45.250;38.102;2024-01-06T12:00:32;16.50;;;2.90;;
74945;SDS011;63509;45.250;38.102;2024-01-06T12:02:59;5.47;;;2.08;;
74945;SDS011;63509;45.250;38.102;2024-01-06T12:05:26;11.32;;;3.70;;
74945;SDS011;63509;45.250;38.102;2024-01-06T12:07:58;14.40;;;2.30;;
74945;SDS011;63509;45.250;38.102;2024-01-06T12:10:26;11.52;;;3.78;;
74945;SDS011;63509;45.250;38.102;2024-01-06T12:12:55;11.57;;;3.83;;
74945;SDS011;63509;45.250;38.102;2024-01-06T12:15:29;19.13;;;2.78;;
74945;SDS011;63509;45.250;38.102;2024-01-06T12:17:57;10.32;;;2.85;;
74945;SDS011;63509;45.250;38.102;2024-01-06T12:20:24;14.93;;;3.38;;
74945;SDS011;63509;45.250;38.102;2024-01-06T12:22:52;16.75;;;2.90;;
74945;SDS011;63509;45.250;38.102;2024-01-06T12:25:20;7.38;;;2.35;;
74945;SDS011;63509;45.250;38.102;2024-01-06T12:27:47;6.72;;;2.38;;
74945;SDS011;63509;45.250;38.102;2024-01-06T12:30:15;2.95;;;1.30;;
74945;SDS011;63509;45.250;38.102;2024-01-06T12:32:47;8.38;;;1.58;;
74945;SDS011;63509;45.250;38.102;2024-01-06T12:35:15;10.13;;;1.65;;
74945;SDS011;63509;45.250;38.102;2024-01-06T12:37:42;9.35;;;1.90;;
74945;SDS011;63509;45.250;38.102;2024-01-06T12:40:10;10.13;;;1.27;;
74945;SDS011;63509;45.250;38.102;2024-01-06T12:42:38;5.63;;;1.08;;
74945;SDS011;63509;45.250;38.102;2024-01-06T12:45:05;8.70;;;0.98;;
74945;SDS011;63509;45.250;38.102;2024-01-06T12:47:32;9.10;;;0.68;;
74945;SDS011;63509;45.250;38.102;2024-01-06T12:49:59;10.40;;;1.23;;
74945;SDS011;63509;45.250;38.102;2024-01-06T12:52:25;6.03;;;1.00;;
74945;SDS011;63509;45.250;38.102;2024-01-06T12:54:51;14.35;;;2.20;;
74945;SDS011;63509;45.250;38.102;2024-01-06T12:57:18;2.97;;;0.75;;
74945;SDS011;63509;45.250;38.102;2024-01-06T12:59:44;2.30;;;0.88;;
74945;SDS011;63509;45.250;38.102;2024-01-06T13:02:13;10.75;;;1.00;;
74945;SDS011;63509;45.250;38.102;2024-01-06T13:04:39;4.18;;;1.10;;
74945;SDS011;63509;45.250;38.102;2024-01-06T13:07:05;3.13;;;1.05;;
74945;SDS011;63509;45.250;38.102;2024-01-06T13:09:32;11.43;;;1.30;;
74945;SDS011;63509;45.250;38.102;2024-01-06T13:11:58;8.73;;;1.17;;
74945;SDS011;63509;45.250;38.102;2024-01-06T13:14:26;16.38;;;1.00;;
74945;SDS011;63509;45.250;38.102;2024-01-06T13:16:54;14.85;;;2.00;;
74945;SDS011;63509;45.250;38.102;2024-01-06T13:19:21;7.60;;;1.08;;
74945;SDS011;63509;45.250;38.102;2024-01-06T13:21:47;19.40;;;1.52;;
74945;SDS011;63509;45.250;38.102;2024-01-06T13:24:13;5.32;;;0.80;;
74945;SDS011;63509;45.250;38.102;2024-01-06T13:26:40;21.67;;;1.60;;
74945;SDS011;63509;45.250;38.102;2024-01-06T13:29:06;6.22;;;1.08;;
74945;SDS011;63509;45.250;38.102;2024-01-06T13:31:33;9.40;;;2.75;;
74945;SDS011;63509;45.250;38.102;2024-01-06T13:33:59;4.05;;;0.95;;
74945;SDS011;63509;45.250;38.102;2024-01-06T13:36:25;12.30;;;1.38;;
74945;SDS011;63509;45.250;38.102;2024-01-06T13:38:51;13.18;;;1.48;;
74945;SDS011;63509;45.250;38.102;2024-01-06T13:41:18;21.27;;;1.58;;
74945;SDS011;63509;45.250;38.102;2024-01-06T13:43:44;3.28;;;0.90;;
74945;SDS011;63509;45.250;38.102;2024-01-06T13:46:10;5.03;;;1.02;;
74945;SDS011;63509;45.250;38.102;2024-01-06T13:48:39;7.47;;;1.08;;
74945;SDS011;63509;45.250;38.102;2024-01-06T13:51:06;9.10;;;1.33;;
74945;SDS011;63509;45.250;38.102;2024-01-06T13:53:33;3.42;;;1.45;;
74945;SDS011;63509;45.250;38.102;2024-01-06T13:55:59;8.52;;;1.15;;
74945;SDS011;63509;45.250;38.102;2024-01-06T13:58:25;5.07;;;0.80;;
74945;SDS011;63509;45.250;38.102;2024-01-06T14:00:51;5.20;;;1.00;;
74945;SDS011;63509;45.250;38.102;2024-01-06T14:03:17;5.97;;;0.98;;
74945;SDS011;63509;45.250;38.102;2024-01-06T14:05:44;4.30;;;0.93;;
74945;SDS011;63509;45.250;38.102;2024-01-06T14:08:10;6.30;;;1.25;;
74945;SDS011;63509;45.250;38.102;2024-01-06T14:10:36;6.63;;;1.15;;
74945;SDS011;63509;45.250;38.102;2024-01-06T14:13:03;11.00;;;1.23;;
74945;SDS011;63509;45.250;38.102;2024-01-06T14:15:29;3.10;;;0.93;;
74945;SDS011;63509;45.250;38.102;2024-01-06T14:17:58;8.88;;;1.27;;
74945;SDS011;63509;45.250;38.102;2024-01-06T14:20:25;10.43;;;1.20;;
74945;SDS011;63509;45.250;38.102;2024-01-06T14:22:51;15.50;;;2.33;;
74945;SDS011;63509;45.250;38.102;2024-01-06T14:25:17;24.35;;;2.10;;
74945;SDS011;63509;45.250;38.102;2024-01-06T14:27:44;10.43;;;3.17;;
74945;SDS011;63509;45.250;38.102;2024-01-06T14:30:10;21.70;;;5.13;;
74945;SDS011;63509;45.250;38.102;2024-01-06T14:32:37;21.45;;;5.70;;
74945;SDS011;63509;45.250;38.102;2024-01-06T14:35:04;13.35;;;5.05;;
74945;SDS011;63509;45.250;38.102;2024-01-06T14:39:58;12.40;;;3.63;;
74945;SDS011;63509;45.250;38.102;2024-01-06T14:42:24;9.00;;;4.07;;
74945;SDS011;63509;45.250;38.102;2024-01-06T14:44:50;9.55;;;1.95;;
74945;SDS011;63509;45.250;38.102;2024-01-06T14:47:16;16.33;;;1.70;;
74945;SDS011;63509;45.250;38.102;2024-01-06T14:49:42;9.77;;;2.08;;